Time;durP1;ratioP1;P1;durP2;ratioP2;P2;SDS_P1;SDS_P2;PMS_P1;PMS_P2;Temp;Humidity;BMP_temperature;BMP_pressure;BME280_temperature;BME280_humidity;BME280_pressure;Samples;Min_cycle;Max_cycle;Signal;HPM_P1;HPM_P2
2024/02/26 00:01:05;;;;;;;2.57;1.13;;;9.20;99.90;;;;;;5041775;28;20206;-59
2024/02/26 00:03:35;;;;;;;1.70;1.20;;;9.20;99.90;;;;;;5042073;28;20234;-61
2024/02/26 00:06:02;;;;;;;2.60;1.20;;;9.20;99.90;;;;;;5045483;28;20696;-59
2024/02/26 00:08:30;;;;;;;1.43;1.23;;;9.30;99.90;;;;;;5044333;28;20210;-59
2024/02/26 00:10:56;;;;;;;1.93;1.53;;;9.40;99.90;;;;;;5041605;28;20252;-60
2024/02/26 00:13:23;;;;;;;2.63;1.40;;;9.60;99.90;;;;;;5041801;28;20226;-59
2024/02/26 00:15:49;;;;;;;1.23;1.10;;;9.70;99.90;;;;;;5044999;28;20225;-59
2024/02/26 00:18:17;;;;;;;1.90;1.40;;;9.70;99.90;;;;;;5044952;28;20264;-59
2024/02/26 00:20:44;;;;;;;1.87;1.60;;;9.80;99.90;;;;;;5042161;28;20221;-59
2024/02/26 00:23:11;;;;;;;2.03;1.57;;;9.90;99.90;;;;;;5041241;28;20226;-60
2024/02/26 00:25:38;;;;;;;2.53;1.40;;;10.00;99.90;;;;;;5043448;28;20198;-59
2024/02/26 00:28:05;;;;;;;2.07;1.37;;;10.00;99.90;;;;;;5045003;28;20301;-60
2024/02/26 00:30:32;;;;;;;1.73;1.20;;;10.10;99.90;;;;;;5043502;28;20228;-59
2024/02/26 00:32:59;;;;;;;1.93;1.47;;;10.20;99.90;;;;;;5041023;28;20742;-59
2024/02/26 00:35:27;;;;;;;2.33;1.30;;;10.20;99.90;;;;;;5041403;28;20218;-59
2024/02/26 00:37:53;;;;;;;1.87;1.37;;;10.30;99.90;;;;;;5044756;28;20209;-59
2024/02/26 00:40:20;;;;;;;3.00;1.43;;;10.40;99.90;;;;;;5044679;28;20213;-59
2024/02/26 00:42:47;;;;;;;1.53;1.10;;;10.40;99.90;;;;;;5040947;28;20729;-59
2024/02/26 00:45:16;;;;;;;2.47;1.27;;;10.50;99.90;;;;;;5041147;28;20198;-59
2024/02/26 00:47:44;;;;;;;1.70;1.10;;;10.40;99.90;;;;;;5045001;28;20202;-58
2024/02/26 00:50:11;;;;;;;1.73;1.20;;;10.40;99.90;;;;;;5045527;28;20248;-59
2024/02/26 00:52:39;;;;;;;1.73;1.00;;;10.40;99.90;;;;;;5042327;28;20236;-59
2024/02/26 00:55:07;;;;;;;1.73;1.20;;;10.30;99.90;;;;;;5041511;28;20272;-59
2024/02/26 00:57:34;;;;;;;3.03;1.30;;;10.20;99.90;;;;;;5042871;28;20206;-59
2024/02/26 01:00:01;;;;;;;1.33;1.23;;;10.10;99.90;;;;;;5044589;28;20206;-59
2024/02/26 01:02:27;;;;;;;3.73;1.00;;;10.00;99.90;;;;;;5043404;28;20234;-59
2024/02/26 01:04:54;;;;;;;1.20;1.10;;;10.00;99.90;;;;;;5040905;28;20622;-59
2024/02/26 01:07:21;;;;;;;1.77;1.37;;;10.00;99.90;;;;;;5040727;28;20256;-59
2024/02/26 01:09:49;;;;;;;1.17;1.00;;;10.10;99.90;;;;;;5043660;28;20205;-59
2024/02/26 01:12:15;;;;;;;1.33;1.10;;;10.20;99.90;;;;;;5043756;28;20229;-59
2024/02/26 01:14:42;;;;;;;1.57;1.10;;;10.10;99.90;;;;;;5040505;28;20217;-59
2024/02/26 01:17:08;;;;;;;3.53;1.10;;;10.20;99.90;;;;;;5040603;28;20281;-58
2024/02/26 01:19:35;;;;;;;1.50;1.10;;;10.10;99.90;;;;;;5041789;28;20261;-59
2024/02/26 01:22:02;;;;;;;1.80;1.20;;;10.20;99.90;;;;;;5043555;28;20229;-59
2024/02/26 01:24:29;;;;;;;1.60;1.23;;;10.20;99.90;;;;;;5043090;28;20201;-59
2024/02/26 01:26:57;;;;;;;1.50;1.07;;;10.30;99.90;;;;;;5040245;28;20209;-59
2024/02/26 01:29:24;;;;;;;1.40;1.17;;;10.40;99.90;;;;;;5040575;28;20237;-59
2024/02/26 01:31:50;;;;;;;1.67;1.30;;;10.40;99.90;;;;;;5031867;28;20305;-59
2024/02/26 01:34:18;;;;;;;1.43;1.10;;;10.40;99.90;;;;;;5040317;28;20217;-59
2024/02/26 01:36:44;;;;;;;3.10;1.37;;;10.40;99.90;;;;;;5042754;28;20225;-59
2024/02/26 01:39:12;;;;;;;3.03;1.33;;;10.30;99.90;;;;;;5043571;28;20202;-58
2024/02/26 01:41:39;;;;;;;1.83;1.20;;;10.30;99.90;;;;;;5041232;28;20229;-59
2024/02/26 01:44:07;;;;;;;3.37;1.37;;;10.30;99.90;;;;;;5040311;28;20206;-58
2024/02/26 01:46:36;;;;;;;2.33;1.27;;;10.30;99.90;;;;;;5041352;28;20336;-59
2024/02/26 01:49:03;;;;;;;1.20;1.10;;;10.30;99.90;;;;;;5043485;28;20210;-59
2024/02/26 01:51:30;;;;;;;1.40;1.10;;;10.30;99.90;;;;;;5042416;28;20225;-58
2024/02/26 01:53:58;;;;;;;1.20;1.00;;;10.20;99.90;;;;;;5039785;28;20229;-59
2024/02/26 01:56:28;;;;;;;1.20;1.00;;;10.20;99.90;;;;;;5039983;28;20230;-60
2024/02/26 01:58:54;;;;;;;1.60;1.30;;;10.10;99.90;;;;;;5032074;28;20668;-59
2024/02/26 02:01:26;;;;;;;1.13;0.93;;;10.20;99.90;;;;;;5039322;28;20604;-60
2024/02/26 02:03:53;;;;;;;1.10;1.00;;;10.20;99.90;;;;;;5031860;28;20672;-60
2024/02/26 02:06:20;;;;;;;1.67;1.30;;;10.30;99.90;;;;;;5039891;28;20238;-59
2024/02/26 02:08:47;;;;;;;2.07;1.20;;;10.30;99.90;;;;;;5042448;28;20592;-59
2024/02/26 02:11:15;;;;;;;1.53;1.10;;;10.40;99.90;;;;;;5042934;28;20212;-60
2024/02/26 02:13:41;;;;;;;2.10;1.13;;;10.50;99.90;;;;;;5040958;28;20210;-60
2024/02/26 02:16:08;;;;;;;1.90;1.17;;;10.50;99.90;;;;;;5039978;28;20700;-59
2024/02/26 02:18:36;;;;;;;1.97;1.20;;;10.50;99.90;;;;;;5040873;28;20210;-60
2024/02/26 02:21:05;;;;;;;3.53;1.13;;;10.60;99.90;;;;;;5042846;28;20209;-60
2024/02/26 02:23:31;;;;;;;1.20;1.10;;;10.60;99.90;;;;;;5042421;28;20226;-59
2024/02/26 02:25:59;;;;;;;1.20;1.10;;;10.60;99.90;;;;;;5040231;28;20695;-59
2024/02/26 02:28:27;;;;;;;1.10;1.00;;;10.60;99.90;;;;;;5043596;28;20672;-59
2024/02/26 02:30:54;;;;;;;2.90;1.23;;;10.70;99.90;;;;;;5035639;28;20268;-59
2024/02/26 02:33:21;;;;;;;1.20;1.10;;;10.80;99.90;;;;;;5043658;28;20276;-59
2024/02/26 02:35:48;;;;;;;1.87;1.20;;;10.90;99.90;;;;;;5046167;28;20225;-60
2024/02/26 02:38:16;;;;;;;2.03;1.20;;;10.90;99.90;;;;;;5046876;28;20545;-59
2024/02/26 02:40:43;;;;;;;1.20;1.10;;;10.80;99.90;;;;;;5045119;28;20656;-59
2024/02/26 02:43:09;;;;;;;1.37;1.20;;;10.90;99.90;;;;;;5043320;28;20284;-60
2024/02/26 02:45:36;;;;;;;2.00;1.60;;;10.90;99.90;;;;;;5044680;28;20213;-59
2024/02/26 02:48:03;;;;;;;1.40;1.10;;;11.00;99.90;;;;;;5046678;28;20202;-59
2024/02/26 02:50:30;;;;;;;2.97;1.00;;;11.00;99.90;;;;;;5046429;28;20276;-60
2024/02/26 02:52:55;;;;;;;1.30;1.10;;;11.00;99.90;;;;;;5042987;28;20233;-59
2024/02/26 02:55:23;;;;;;;2.33;1.10;;;11.00;99.90;;;;;;5043160;28;20230;-59
2024/02/26 02:57:50;;;;;;;1.37;1.10;;;11.00;99.90;;;;;;5046017;28;20730;-60
2024/02/26 03:00:17;;;;;;;1.40;1.10;;;10.90;99.90;;;;;;5046485;28;20232;-60
2024/02/26 03:02:44;;;;;;;1.40;1.20;;;10.90;99.90;;;;;;5043563;28;20719;-60
2024/02/26 03:05:11;;;;;;;1.70;1.10;;;11.00;99.90;;;;;;5043101;28;20230;-58
2024/02/26 03:07:38;;;;;;;1.73;1.30;;;11.00;99.90;;;;;;5044393;28;20207;-58
2024/02/26 03:10:05;;;;;;;1.67;1.47;;;11.10;99.90;;;;;;5046391;28;20209;-58
2024/02/26 03:12:34;;;;;;;1.67;1.13;;;10.80;99.90;;;;;;5045306;28;20237;-59
2024/02/26 03:15:02;;;;;;;1.60;1.20;;;10.60;99.90;;;;;;5042823;28;20213;-59
2024/02/26 03:17:29;;;;;;;2.30;1.13;;;10.60;99.90;;;;;;5042686;28;20245;-58
2024/02/26 03:19:56;;;;;;;2.40;1.20;;;10.60;99.90;;;;;;5046259;28;20622;-58
2024/02/26 03:22:22;;;;;;;1.30;1.00;;;10.60;99.90;;;;;;5045808;28;20232;-58
2024/02/26 03:24:49;;;;;;;1.70;1.20;;;10.70;99.90;;;;;;5042966;28;20688;-58
2024/02/26 03:27:16;;;;;;;1.60;1.37;;;10.70;99.90;;;;;;5042720;28;20616;-58
2024/02/26 03:29:44;;;;;;;1.23;1.13;;;10.70;99.90;;;;;;5044455;28;20214;-58
2024/02/26 03:32:11;;;;;;;2.50;1.33;;;10.50;99.90;;;;;;5045982;28;20647;-58
2024/02/26 03:34:38;;;;;;;1.20;1.10;;;10.40;99.90;;;;;;5044777;28;20205;-58
2024/02/26 03:37:05;;;;;;;1.63;1.10;;;10.30;99.90;;;;;;5042175;28;20249;-59
2024/02/26 03:39:32;;;;;;;2.13;1.40;;;10.30;99.90;;;;;;5042191;28;20206;-59
2024/02/26 03:41:59;;;;;;;1.70;1.20;;;10.30;99.90;;;;;;5045418;28;20225;-59
2024/02/26 03:44:25;;;;;;;1.60;1.30;;;10.30;99.90;;;;;;5045655;28;20206;-58
2024/02/26 03:46:53;;;;;;;2.37;1.20;;;10.20;99.90;;;;;;5042516;28;20195;-59
2024/02/26 03:49:20;;;;;;;1.73;1.20;;;10.20;99.90;;;;;;5042493;28;20210;-59
2024/02/26 03:51:46;;;;;;;3.03;1.70;;;10.20;99.90;;;;;;5044212;28;20233;-59
2024/02/26 03:54:14;;;;;;;1.60;1.30;;;10.20;99.90;;;;;;5045533;28;20283;-59
2024/02/26 03:56:40;;;;;;;1.57;1.20;;;10.20;99.90;;;;;;5043767;28;20653;-59
2024/02/26 03:59:07;;;;;;;1.20;1.10;;;10.10;99.90;;;;;;5041969;28;20213;-59
2024/02/26 04:01:33;;;;;;;1.50;1.03;;;10.10;99.90;;;;;;5042268;28;20288;-58
2024/02/26 04:04:02;;;;;;;1.57;1.37;;;10.10;99.90;;;;;;5093973;22;20701;-60
2024/02/26 04:06:28;;;;;;;1.50;1.23;;;10.00;99.90;;;;;;5073664;28;20291;-60
2024/02/26 04:08:55;;;;;;;1.80;1.40;;;9.90;99.90;;;;;;5065510;28;20201;-60
2024/02/26 04:11:21;;;;;;;3.37;1.50;;;9.80;99.90;;;;;;5073669;28;20209;-60
2024/02/26 04:13:51;;;;;;;1.60;1.40;;;9.70;99.90;;;;;;5073020;28;20644;-60
2024/02/26 04:16:18;;;;;;;1.70;1.30;;;9.60;99.90;;;;;;5073753;28;20266;-59
2024/02/26 04:18:44;;;;;;;2.93;1.30;;;9.60;99.90;;;;;;5073609;28;20220;-59
2024/02/26 04:21:12;;;;;;;1.63;1.13;;;9.60;99.90;;;;;;5073159;28;20208;-59
2024/02/26 04:23:39;;;;;;;2.20;1.90;;;9.60;99.90;;;;;;5073202;28;20224;-59
2024/02/26 04:26:06;;;;;;;2.00;1.63;;;9.70;99.90;;;;;;5073262;28;20204;-58
2024/02/26 04:28:32;;;;;;;1.63;1.33;;;9.70;99.90;;;;;;5073185;28;20216;-58
2024/02/26 04:30:59;;;;;;;1.37;1.23;;;9.70;99.90;;;;;;5073048;28;20209;-58
2024/02/26 04:33:26;;;;;;;1.63;1.27;;;9.80;99.90;;;;;;5073522;28;20228;-59
2024/02/26 04:35:52;;;;;;;1.30;1.17;;;9.80;99.90;;;;;;5072944;28;20213;-59
2024/02/26 04:38:20;;;;;;;2.07;1.30;;;9.90;99.90;;;;;;5073051;28;20212;-59
2024/02/26 04:40:47;;;;;;;1.33;1.20;;;9.90;99.90;;;;;;5072475;28;20208;-59
2024/02/26 04:43:14;;;;;;;1.57;1.10;;;9.90;99.90;;;;;;5072701;28;20224;-60
2024/02/26 04:45:40;;;;;;;3.33;2.07;;;9.80;99.90;;;;;;5072818;28;20201;-58
2024/02/26 04:48:08;;;;;;;1.90;1.53;;;9.80;99.90;;;;;;5072746;28;20208;-59
2024/02/26 04:50:34;;;;;;;2.40;1.30;;;9.70;99.90;;;;;;5072988;28;20616;-59
2024/02/26 04:53:01;;;;;;;1.73;1.20;;;9.80;99.90;;;;;;5072631;28;20307;-61
2024/02/26 04:55:29;;;;;;;2.43;1.50;;;9.80;99.90;;;;;;5073311;28;20213;-59
2024/02/26 04:57:56;;;;;;;1.23;1.10;;;9.70;99.90;;;;;;5072711;28;20204;-59
2024/02/26 05:00:22;;;;;;;1.70;1.30;;;9.60;99.90;;;;;;5072800;28;20205;-59
2024/02/26 05:02:49;;;;;;;1.77;1.50;;;9.50;99.90;;;;;;5071790;28;20717;-58
2024/02/26 05:05:16;;;;;;;1.73;1.17;;;9.30;99.90;;;;;;5072466;28;20204;-59
2024/02/26 05:07:43;;;;;;;1.80;1.40;;;9.30;99.90;;;;;;5072255;28;20204;-59
2024/02/26 05:10:10;;;;;;;2.27;1.40;;;9.30;99.90;;;;;;5072613;28;20209;-59
2024/02/26 05:12:38;;;;;;;1.57;1.47;;;9.20;99.90;;;;;;5072035;28;20221;-59
2024/02/26 05:15:06;;;;;;;1.83;1.20;;;9.20;99.90;;;;;;5072473;28;20231;-59
2024/02/26 05:17:32;;;;;;;3.00;1.40;;;9.20;99.90;;;;;;5072162;28;20220;-59
2024/02/26 05:19:59;;;;;;;1.60;1.30;;;9.10;99.90;;;;;;5072203;28;20212;-59
2024/02/26 05:22:26;;;;;;;2.00;1.47;;;9.00;99.90;;;;;;5071710;28;20225;-59
2024/02/26 05:24:52;;;;;;;1.70;1.30;;;9.00;99.90;;;;;;5072356;28;20282;-59
2024/02/26 05:27:19;;;;;;;2.17;1.30;;;9.10;99.90;;;;;;5072452;28;20223;-59
2024/02/26 05:29:47;;;;;;;1.80;1.57;;;9.20;99.90;;;;;;5072346;28;20205;-58
2024/02/26 05:32:13;;;;;;;9.67;5.57;;;9.20;99.90;;;;;;5071930;28;20229;-58
2024/02/26 05:34:41;;;;;;;3.40;2.13;;;9.30;99.90;;;;;;5072727;28;20212;-59
2024/02/26 05:37:08;;;;;;;1.50;1.17;;;9.30;99.90;;;;;;5072653;28;20228;-60
2024/02/26 05:39:35;;;;;;;1.67;1.30;;;9.30;99.90;;;;;;5072038;28;20255;-59
2024/02/26 05:42:01;;;;;;;1.40;1.27;;;9.30;99.90;;;;;;5071466;28;20204;-59
2024/02/26 05:44:28;;;;;;;2.00;1.33;;;9.30;99.90;;;;;;5071925;28;20201;-59
2024/02/26 05:46:56;;;;;;;1.20;1.10;;;9.30;99.90;;;;;;5071871;28;20649;-61
2024/02/26 05:49:23;;;;;;;4.50;2.63;;;9.30;99.90;;;;;;5072033;28;20204;-60
2024/02/26 05:51:50;;;;;;;2.10;1.50;;;9.50;99.90;;;;;;5071609;28;20209;-60
2024/02/26 05:54:16;;;;;;;3.07;2.03;;;9.60;99.90;;;;;;5071789;28;20212;-59
2024/02/26 05:56:43;;;;;;;7.57;4.90;;;9.70;99.90;;;;;;5071622;28;20225;-59
2024/02/26 05:59:10;;;;;;;2.20;1.57;;;9.80;99.90;;;;;;5071897;28;20288;-59
2024/02/26 06:01:36;;;;;;;4.37;2.77;;;9.90;99.90;;;;;;5075110;28;20200;-59
2024/02/26 06:04:04;;;;;;;5.33;2.10;;;10.00;99.90;;;;;;5077896;28;20286;-59
2024/02/26 06:06:31;;;;;;;3.60;1.70;;;10.00;99.90;;;;;;5078405;28;20196;-60
2024/02/26 06:08:58;;;;;;;4.47;3.00;;;10.10;99.90;;;;;;5078374;28;20242;-59
2024/02/26 06:11:25;;;;;;;2.50;2.00;;;10.10;99.90;;;;;;5078227;28;20674;-59
2024/02/26 06:13:52;;;;;;;4.33;1.50;;;10.10;99.90;;;;;;5078332;28;20320;-60
2024/02/26 06:16:18;;;;;;;3.20;2.00;;;10.10;99.90;;;;;;5078041;28;20221;-59
2024/02/26 06:18:45;;;;;;;5.77;4.10;;;10.10;99.90;;;;;;5078394;28;20817;-59
2024/02/26 06:21:13;;;;;;;3.37;2.20;;;10.10;99.90;;;;;;5077920;28;20230;-60
2024/02/26 06:23:40;;;;;;;2.40;1.87;;;10.20;99.90;;;;;;5078284;28;20225;-59
2024/02/26 06:26:07;;;;;;;1.93;1.50;;;10.00;99.90;;;;;;5078175;28;20700;-58
2024/02/26 06:28:35;;;;;;;2.43;1.50;;;9.80;99.90;;;;;;5078438;28;20205;-60
2024/02/26 06:31:02;;;;;;;3.33;1.70;;;9.60;99.90;;;;;;5069960;28;20201;-60
2024/02/26 06:33:29;;;;;;;2.93;2.10;;;9.60;99.90;;;;;;5078765;28;20235;-58
2024/02/26 06:35:55;;;;;;;5.13;3.30;;;9.70;99.90;;;;;;5078297;28;20681;-58
2024/02/26 06:38:23;;;;;;;2.13;1.80;;;9.70;99.90;;;;;;5078433;28;20278;-59
2024/02/26 06:40:50;;;;;;;2.80;1.97;;;9.70;99.90;;;;;;5078495;28;20204;-59
2024/02/26 06:43:17;;;;;;;2.47;1.80;;;9.50;99.90;;;;;;5077789;28;20259;-58
2024/02/26 06:45:43;;;;;;;2.60;1.93;;;9.50;99.90;;;;;;5077559;28;20231;-60
2024/02/26 06:48:10;;;;;;;2.87;1.93;;;9.60;99.90;;;;;;5077830;28;20666;-59
2024/02/26 06:50:37;;;;;;;2.77;1.80;;;9.70;99.90;;;;;;5077651;28;20209;-60
2024/02/26 06:53:04;;;;;;;5.60;4.03;;;9.80;99.90;;;;;;5077599;28;20229;-60
2024/02/26 06:55:32;;;;;;;3.27;2.77;;;9.90;99.90;;;;;;5077768;28;20319;-60
2024/02/26 06:57:59;;;;;;;5.83;2.37;;;10.00;99.90;;;;;;5077483;28;20289;-60
2024/02/26 07:00:25;;;;;;;2.77;1.80;;;10.10;99.90;;;;;;5077684;28;20209;-60
2024/02/26 07:02:52;;;;;;;3.17;1.90;;;10.20;99.90;;;;;;5077133;28;20229;-60
2024/02/26 07:05:19;;;;;;;3.87;2.27;;;10.20;99.90;;;;;;5077891;28;20212;-57
2024/02/26 07:07:45;;;;;;;2.47;1.90;;;10.30;99.90;;;;;;5077603;28;20266;-56
2024/02/26 07:10:12;;;;;;;3.43;2.10;;;10.40;99.90;;;;;;5077411;28;20693;-58
2024/02/26 07:12:40;;;;;;;6.90;2.97;;;10.40;99.90;;;;;;5075566;28;20228;-58
2024/02/26 07:15:08;;;;;;;3.60;2.60;;;10.50;99.90;;;;;;5074245;28;20267;-58
2024/02/26 07:17:34;;;;;;;3.87;2.87;;;10.50;99.90;;;;;;5074221;28;20274;-59
2024/02/26 07:20:04;;;;;;;3.60;2.90;;;10.60;99.90;;;;;;5066101;28;20647;-59
2024/02/26 07:22:30;;;;;;;3.90;2.17;;;10.70;99.90;;;;;;5073702;28;20312;-60
2024/02/26 07:24:57;;;;;;;3.00;2.17;;;10.80;99.90;;;;;;5074166;28;20264;-58
2024/02/26 07:27:24;;;;;;;3.67;2.40;;;10.80;99.90;;;;;;5073861;28;20215;-58
2024/02/26 07:29:52;;;;;;;2.67;2.00;;;10.80;99.90;;;;;;5074169;28;20217;-59
2024/02/26 07:32:19;;;;;;;3.90;2.13;;;10.80;99.90;;;;;;5073717;28;20264;-59
2024/02/26 07:34:45;;;;;;;3.27;2.33;;;10.80;99.90;;;;;;5073936;28;20213;-58
2024/02/26 07:37:12;;;;;;;2.70;2.33;;;10.90;99.90;;;;;;5073808;28;20216;-58
2024/02/26 07:39:39;;;;;;;4.53;2.23;;;10.90;99.90;;;;;;5073591;28;20629;-58
2024/02/26 07:42:06;;;;;;;3.77;2.10;;;10.90;99.90;;;;;;5073370;28;20254;-59
2024/02/26 07:44:32;;;;;;;7.37;4.63;;;10.90;99.90;;;;;;5073712;28;20648;-58
2024/02/26 07:47:00;;;;;;;5.87;3.33;;;10.90;99.90;;;;;;5073783;28;20246;-59
2024/02/26 07:49:27;;;;;;;3.60;2.40;;;11.00;99.90;;;;;;5073636;28;20209;-58
2024/02/26 07:51:54;;;;;;;2.63;1.93;;;11.00;99.90;;;;;;5072978;28;20646;-59
2024/02/26 07:54:21;;;;;;;4.53;3.17;;;11.00;99.90;;;;;;5073356;28;20205;-59
2024/02/26 07:56:47;;;;;;;25.13;18.97;;;11.20;99.90;;;;;;5073283;28;20229;-58
2024/02/26 07:59:14;;;;;;;7.13;4.53;;;11.10;99.90;;;;;;5073546;28;20201;-58
2024/02/26 08:01:41;;;;;;;4.43;2.90;;;11.10;99.90;;;;;;5073161;28;20273;-59
2024/02/26 08:04:09;;;;;;;5.43;3.43;;;11.10;99.90;;;;;;5073478;28;20229;-59
2024/02/26 08:06:36;;;;;;;5.60;2.27;;;11.20;99.90;;;;;;5073325;28;20215;-58
2024/02/26 08:09:04;;;;;;;4.80;2.87;;;11.20;99.90;;;;;;5065024;28;20674;-57
2024/02/26 08:11:30;;;;;;;3.50;2.80;;;11.20;99.90;;;;;;5072738;28;20748;-55
2024/02/26 08:13:58;;;;;;;3.30;2.00;;;11.30;99.90;;;;;;5073146;28;20283;-58
2024/02/26 08:16:25;;;;;;;2.83;1.90;;;11.40;99.90;;;;;;5073083;28;20256;-57
2024/02/26 08:18:52;;;;;;;2.60;2.10;;;11.30;99.90;;;;;;5073024;28;20217;-58
2024/02/26 08:21:20;;;;;;;2.33;1.93;;;11.40;99.90;;;;;;5072948;28;20201;-58
2024/02/26 08:23:46;;;;;;;2.87;2.30;;;11.50;99.90;;;;;;5072200;28;20464;-58
2024/02/26 08:26:13;;;;;;;2.73;2.20;;;11.50;99.90;;;;;;5073053;28;20291;-57
2024/02/26 08:28:40;;;;;;;2.30;1.90;;;11.50;99.90;;;;;;5072920;28;20270;-58
2024/02/26 08:31:07;;;;;;;2.50;2.10;;;11.60;99.90;;;;;;5072508;28;20666;-58
2024/02/26 08:33:35;;;;;;;3.23;2.17;;;11.60;99.90;;;;;;5072797;28;20720;-58
2024/02/26 08:36:05;;;;;;;3.70;2.40;;;11.70;99.90;;;;;;5072562;28;20288;-58
2024/02/26 08:38:34;;;;;;;3.03;2.20;;;11.70;99.90;;;;;;5072622;28;20709;-58
2024/02/26 08:41:01;;;;;;;3.23;2.30;;;11.80;99.90;;;;;;5072572;28;20209;-58
2024/02/26 08:43:28;;;;;;;2.47;2.00;;;11.80;99.90;;;;;;5072420;28;20729;-58
2024/02/26 08:45:55;;;;;;;3.37;2.30;;;11.90;99.90;;;;;;5072787;28;20208;-58
2024/02/26 08:48:22;;;;;;;4.10;2.40;;;12.00;99.90;;;;;;5072568;28;20284;-57
2024/02/26 08:50:49;;;;;;;4.63;2.23;;;12.00;99.90;;;;;;5072072;28;20205;-59
2024/02/26 08:53:15;;;;;;;3.03;2.73;;;12.10;99.90;;;;;;5072026;28;20617;-57
2024/02/26 08:55:43;;;;;;;2.90;2.60;;;12.20;99.90;;;;;;5072231;28;20205;-59
2024/02/26 08:58:10;;;;;;;1.80;1.50;;;12.20;99.90;;;;;;5072644;28;20646;-58
2024/02/26 09:00:37;;;;;;;3.13;1.60;;;12.20;99.90;;;;;;5072129;28;20278;-58
2024/02/26 09:03:04;;;;;;;1.70;1.47;;;12.30;99.90;;;;;;5071783;28;20282;-58
2024/02/26 09:05:31;;;;;;;2.37;1.50;;;12.40;99.90;;;;;;5071952;28;20235;-58
2024/02/26 09:07:57;;;;;;;2.13;1.50;;;12.50;99.90;;;;;;5072200;28;20201;-59
2024/02/26 09:10:24;;;;;;;2.53;1.40;;;12.50;99.90;;;;;;5072541;28;20197;-56
2024/02/26 09:12:52;;;;;;;2.00;1.23;;;12.60;99.90;;;;;;5072727;28;20631;-58
2024/02/26 09:15:19;;;;;;;2.70;1.40;;;12.70;99.90;;;;;;5072885;28;20200;-58
2024/02/26 09:17:45;;;;;;;1.57;1.30;;;12.80;99.90;;;;;;5072064;28;20229;-58
2024/02/26 09:20:14;;;;;;;2.90;1.53;;;12.80;99.90;;;;;;5071998;28;20258;-58
2024/02/26 09:22:42;;;;;;;1.77;1.30;;;12.90;99.90;;;;;;5071377;28;20706;-58
2024/02/26 09:25:09;;;;;;;2.27;1.23;;;13.00;99.90;;;;;;5071906;28;20197;-58
2024/02/26 09:27:36;;;;;;;1.50;1.40;;;13.00;99.90;;;;;;5071695;28;20736;-58
2024/02/26 09:30:05;;;;;;;4.87;1.80;;;13.00;99.90;;;;;;5071728;28;20689;-58
2024/02/26 09:32:31;;;;;;;4.63;1.40;;;12.90;99.90;;;;;;5071602;28;20253;-59
2024/02/26 09:34:58;;;;;;;1.90;1.50;;;12.80;99.90;;;;;;5071634;28;20254;-57
2024/02/26 09:37:25;;;;;;;2.07;1.57;;;12.80;99.90;;;;;;5071380;28;20228;-58
2024/02/26 09:39:51;;;;;;;2.07;1.57;;;12.90;99.90;;;;;;5071843;28;20204;-58
2024/02/26 09:42:20;;;;;;;2.00;1.73;;;13.00;99.90;;;;;;5072001;28;20216;-59
2024/02/26 09:44:48;;;;;;;2.77;1.70;;;13.00;99.90;;;;;;5071347;28;20685;-57
2024/02/26 09:47:17;;;;;;;2.77;1.90;;;13.00;99.90;;;;;;5071890;28;20201;-59
2024/02/26 09:49:44;;;;;;;3.03;1.70;;;13.00;99.90;;;;;;5071577;28;20229;-59
2024/02/26 09:52:11;;;;;;;3.00;1.60;;;12.90;99.90;;;;;;5071124;28;20608;-57
2024/02/26 09:54:39;;;;;;;1.67;1.30;;;13.10;99.90;;;;;;5071442;28;20205;-59
2024/02/26 09:57:14;;;;;;;3.57;1.40;;;13.10;99.90;;;;;;5063138;28;20630;-59
2024/02/26 09:59:42;;;;;;;1.40;1.23;;;13.20;99.90;;;;;;5071465;28;20582;-58
2024/02/26 10:02:12;;;;;;;3.37;1.67;;;13.30;99.90;;;;;;5071278;28;20208;-58
2024/02/26 10:04:41;;;;;;;3.30;1.80;;;13.40;99.90;;;;;;5072062;28;20212;-54
2024/02/26 10:07:11;;;;;;;1.63;1.40;;;13.40;99.90;;;;;;5063691;28;20205;-54
2024/02/26 10:09:38;;;;;;;2.20;1.60;;;13.40;99.90;;;;;;5071487;28;20201;-54
2024/02/26 10:12:05;;;;;;;3.77;1.93;;;13.60;99.90;;;;;;5070990;28;20201;-55
2024/02/26 10:14:32;;;;;;;5.73;3.07;;;13.60;99.90;;;;;;5071612;28;20204;-54
2024/02/26 10:17:01;;;;;;;3.30;2.60;;;13.60;99.90;;;;;;5071302;28;20209;-53
2024/02/26 10:19:29;;;;;;;3.00;2.40;;;13.50;99.90;;;;;;5071287;28;20228;-55
2024/02/26 10:22:00;;;;;;;2.20;1.53;;;13.40;99.90;;;;;;5070724;28;20667;-55
2024/02/26 10:24:27;;;;;;;3.60;1.70;;;13.50;99.90;;;;;;5071184;28;20224;-54
2024/02/26 10:26:54;;;;;;;2.33;1.90;;;13.60;99.90;;;;;;5071243;28;20212;-54
2024/02/26 10:29:23;;;;;;;2.50;1.90;;;13.70;99.90;;;;;;5071354;28;20201;-57
2024/02/26 10:31:49;;;;;;;2.13;1.63;;;13.90;99.90;;;;;;5070990;28;20201;-58
2024/02/26 10:34:16;;;;;;;3.60;1.70;;;14.10;99.90;;;;;;5071124;28;20599;-56
2024/02/26 10:36:43;;;;;;;2.57;1.87;;;14.30;99.90;;;;;;5071573;28;20268;-55
2024/02/26 10:39:13;;;;;;;1.90;1.53;;;14.40;99.90;;;;;;5071101;28;20221;-54
2024/02/26 10:41:41;;;;;;;1.80;1.40;;;14.50;99.90;;;;;;5071113;28;20201;-56
2024/02/26 10:44:10;;;;;;;2.93;1.50;;;14.70;99.90;;;;;;5062970;28;20220;-56
2024/02/26 10:46:37;;;;;;;2.10;1.60;;;15.00;99.90;;;;;;5071166;28;20225;-55
2024/02/26 10:49:06;;;;;;;1.93;1.60;;;15.20;99.90;;;;;;5074963;28;20201;-56
2024/02/26 10:51:38;;;;;;;3.97;1.97;;;15.30;99.90;;;;;;5074508;28;20254;-54
2024/02/26 10:54:07;;;;;;;4.37;1.97;;;15.20;99.90;;;;;;5074783;28;20221;-54
2024/02/26 10:56:37;;;;;;;1.73;1.50;;;15.10;99.90;;;;;;5075036;28;20205;-56
2024/02/26 10:59:07;;;;;;;2.27;1.80;;;15.00;99.90;;;;;;5071794;28;20698;-56
2024/02/26 11:01:37;;;;;;;6.83;2.40;;;15.10;99.90;;;;;;5074084;28;20205;-60
2024/02/26 11:04:04;;;;;;;9.60;7.40;;;15.10;99.90;;;;;;5074192;28;20736;-62
2024/02/26 11:06:34;;;;;;;2.37;2.00;;;15.20;99.90;;;;;;5074478;28;20201;-61
2024/02/26 11:09:01;;;;;;;3.33;1.73;;;15.40;99.90;;;;;;5074552;28;20201;-61
2024/02/26 11:11:28;;;;;;;3.90;1.47;;;15.60;99.90;;;;;;5074434;28;20204;-60
2024/02/26 11:13:58;;;;;;;3.53;1.30;;;15.80;99.90;;;;;;5073926;28;20278;-60
2024/02/26 11:16:25;;;;;;;2.00;1.30;;;15.80;99.90;;;;;;5074377;28;20201;-61
2024/02/26 11:18:55;;;;;;;3.25;1.60;;;15.90;99.90;;;;;;5073989;28;20227;-60
2024/02/26 11:21:27;;;;;;;1.35;1.15;;;16.00;99.90;;;;;;5074055;28;20634;-60
2024/02/26 11:23:54;;;;;;;1.80;1.30;;;16.00;99.90;;;;;;5074054;28;20220;-56
2024/02/26 11:26:23;;;;;;;2.80;1.77;;;16.10;99.90;;;;;;5074145;28;20288;-56
2024/02/26 11:28:52;;;;;;;2.20;1.60;;;16.20;99.90;;;;;;5073912;28;20573;-57
2024/02/26 11:31:26;;;;;;;2.17;1.20;;;16.30;99.90;;;;;;5073726;28;20579;-56
2024/02/26 11:33:54;;;;;;;10.65;4.85;;;16.40;99.90;;;;;;5073769;28;20217;-55
2024/02/26 11:36:21;;;;;;;4.93;1.77;;;16.40;99.90;;;;;;5074283;28;20212;-55
2024/02/26 11:38:51;;;;;;;1.67;1.25;;;16.60;99.90;;;;;;5073915;28;20213;-56
2024/02/26 11:41:18;;;;;;;1.08;0.95;;;16.50;99.90;;;;;;5074059;28;20205;-56
2024/02/26 11:43:52;;;;;;;2.25;1.10;;;16.50;99.90;;;;;;5073328;28;20221;-55
2024/02/26 11:46:31;;;;;;;1.70;1.10;;;16.60;99.90;;;;;;5073672;28;20201;-56
2024/02/26 11:49:00;;;;;;;2.45;1.08;;;16.60;99.90;;;;;;5074262;28;20284;-55
2024/02/26 11:51:27;;;;;;;2.20;1.35;;;16.70;99.90;;;;;;5073482;28;20250;-57
2024/02/26 11:53:56;;;;;;;2.33;1.13;;;17.00;99.90;;;;;;5073504;28;20260;-56
2024/02/26 11:56:24;;;;;;;1.45;0.88;;;17.20;99.90;;;;;;5073772;28;20205;-55
2024/02/26 11:58:55;;;;;;;1.13;1.00;;;17.50;99.90;;;;;;5072663;28;20521;-54
2024/02/26 12:01:42;;;;;;;1.92;1.48;;;17.80;99.90;;;;;;5073485;28;20205;-57
2024/02/26 12:04:15;;;;;;;3.53;1.70;;;17.90;99.90;;;;;;5064900;28;20308;-58
2024/02/26 12:06:44;;;;;;;2.33;1.20;;;18.10;99.90;;;;;;5073676;28;20233;-56
2024/02/26 12:09:11;;;;;;;6.22;3.15;;;18.30;99.90;;;;;;5065737;28;20197;-56
2024/02/26 12:11:40;;;;;;;4.07;1.90;;;18.50;99.00;;;;;;5073315;28;20254;-57
2024/02/26 12:14:10;;;;;;;1.17;1.00;;;18.50;98.40;;;;;;5073108;28;20227;-55
2024/02/26 12:16:39;;;;;;;1.63;0.90;;;18.50;98.30;;;;;;5073705;28;20201;-56
2024/02/26 12:19:07;;;;;;;1.60;0.90;;;18.60;97.80;;;;;;5072848;28;20771;-58
2024/02/26 12:21:35;;;;;;;2.58;0.90;;;18.50;98.10;;;;;;5072880;28;20689;-57
2024/02/26 12:24:13;;;;;;;1.80;0.80;;;18.50;98.20;;;;;;5073096;28;20270;-56
2024/02/26 12:26:40;;;;;;;2.92;0.82;;;18.60;98.30;;;;;;5073139;28;20502;-57
2024/02/26 12:29:07;;;;;;;1.58;0.90;;;18.80;98.00;;;;;;5072719;28;20670;-56
2024/02/26 12:31:34;;;;;;;1.10;0.70;;;19.00;97.60;;;;;;5072618;28;20209;-56
2024/02/26 12:34:02;;;;;;;0.77;0.68;;;19.10;97.30;;;;;;5073174;28;20227;-58
2024/02/26 12:36:29;;;;;;;0.60;0.60;;;19.20;95.70;;;;;;5073093;28;20291;-58
2024/02/26 12:38:56;;;;;;;1.10;0.70;;;19.10;95.80;;;;;;5072737;28;20244;-57
2024/02/26 12:41:23;;;;;;;2.33;0.60;;;19.00;96.00;;;;;;5072464;28;20288;-57
2024/02/26 12:43:50;;;;;;;4.28;0.70;;;18.90;95.70;;;;;;5072351;28;20671;-59
2024/02/26 12:46:17;;;;;;;0.77;0.57;;;18.80;95.40;;;;;;5072612;28;20208;-56
2024/02/26 12:48:44;;;;;;;1.38;0.77;;;18.80;95.90;;;;;;5072918;28;20258;-56